sensor_id;sensor_type;location;lat;lon;timestamp;P1;durP1;ratioP1;P2;durP2;ratioP2
18857;SDS011;9558;50.178;8.370;2024-01-11T00:00:48;6.80;;;3.08;;
18857;SDS011;9558;50.178;8.370;2024-01-11T00:03:35;12.65;;;3.53;;
18857;SDS011;9558;50.178;8.370;2024-01-11T00:06:22;10.77;;;4.85;;
18857;SDS011;9558;50.178;8.370;2024-01-11T00:09:08;10.70;;;4.78;;
18857;SDS011;9558;50.178;8.370;2024-01-11T00:11:56;20.67;;;4.75;;
18857;SDS011;9558;50.178;8.370;2024-01-11T00:14:43;9.00;;;4.80;;
18857;SDS011;9558;50.178;8.370;2024-01-11T00:17:30;9.73;;;5.15;;
18857;SDS011;9558;50.178;8.370;2024-01-11T00:20:17;6.63;;;3.38;;
18857;SDS011;9558;50.178;8.370;2024-01-11T00:23:04;11.43;;;4.65;;
18857;SDS011;9558;50.178;8.370;2024-01-11T00:25:51;11.98;;;3.45;;
18857;SDS011;9558;50.178;8.370;2024-01-11T00:31:26;3.70;;;2.13;;
18857;SDS011;9558;50.178;8.370;2024-01-11T00:34:13;5.57;;;3.00;;
18857;SDS011;9558;50.178;8.370;2024-01-11T00:37:00;7.25;;;3.97;;
18857;SDS011;9558;50.178;8.370;2024-01-11T00:39:46;7.18;;;3.13;;
18857;SDS011;9558;50.178;8.370;2024-01-11T00:42:33;1.83;;;1.73;;
18857;SDS011;9558;50.178;8.370;2024-01-11T00:45:22;3.95;;;3.20;;
18857;SDS011;9558;50.178;8.370;2024-01-11T00:48:08;5.18;;;3.33;;
18857;SDS011;9558;50.178;8.370;2024-01-11T00:50:55;8.07;;;4.47;;
18857;SDS011;9558;50.178;8.370;2024-01-11T00:53:42;7.50;;;1.48;;
18857;SDS011;9558;50.178;8.370;2024-01-11T00:56:29;6.78;;;4.05;;
18857;SDS011;9558;50.178;8.370;2024-01-11T00:59:16;5.55;;;3.17;;
18857;SDS011;9558;50.178;8.370;2024-01-11T01:02:04;5.55;;;2.83;;
18857;SDS011;9558;50.178;8.370;2024-01-11T01:04:51;6.03;;;3.80;;
18857;SDS011;9558;50.178;8.370;2024-01-11T01:07:37;3.35;;;2.58;;
18857;SDS011;9558;50.178;8.370;2024-01-11T01:10:24;10.10;;;4.97;;
18857;SDS011;9558;50.178;8.370;2024-01-11T01:13:11;15.55;;;4.18;;
18857;SDS011;9558;50.178;8.370;2024-01-11T01:15:58;8.70;;;4.00;;
18857;SDS011;9558;50.178;8.370;2024-01-11T01:18:46;9.48;;;4.68;;
18857;SDS011;9558;50.178;8.370;2024-01-11T01:21:32;4.68;;;3.17;;
18857;SDS011;9558;50.178;8.370;2024-01-11T01:24:19;14.02;;;5.30;;
18857;SDS011;9558;50.178;8.370;2024-01-11T01:27:06;8.15;;;4.28;;
18857;SDS011;9558;50.178;8.370;2024-01-11T01:29:53;11.65;;;3.55;;
18857;SDS011;9558;50.178;8.370;2024-01-11T01:32:39;9.15;;;4.90;;
18857;SDS011;9558;50.178;8.370;2024-01-11T01:35:27;5.10;;;3.05;;
18857;SDS011;9558;50.178;8.370;2024-01-11T01:38:14;10.40;;;4.30;;
18857;SDS011;9558;50.178;8.370;2024-01-11T01:41:02;4.55;;;3.67;;
18857;SDS011;9558;50.178;8.370;2024-01-11T01:43:49;6.53;;;3.70;;
18857;SDS011;9558;50.178;8.370;2024-01-11T01:46:36;8.43;;;4.93;;
18857;SDS011;9558;50.178;8.370;2024-01-11T01:49:24;14.45;;;3.88;;
18857;SDS011;9558;50.178;8.370;2024-01-11T01:52:12;3.03;;;2.53;;
18857;SDS011;9558;50.178;8.370;2024-01-11T01:55:01;10.65;;;4.82;;
18857;SDS011;9558;50.178;8.370;2024-01-11T01:57:49;13.73;;;4.93;;
18857;SDS011;9558;50.178;8.370;2024-01-11T02:00:37;9.63;;;4.45;;
18857;SDS011;9558;50.178;8.370;2024-01-11T02:03:26;9.57;;;3.65;;
18857;SDS011;9558;50.178;8.370;2024-01-11T02:06:14;2.55;;;2.35;;
18857;SDS011;9558;50.178;8.370;2024-01-11T02:09:03;10.13;;;5.28;;
18857;SDS011;9558;50.178;8.370;2024-01-11T02:11:50;8.95;;;3.70;;
18857;SDS011;9558;50.178;8.370;2024-01-11T02:14:38;5.00;;;3.95;;
18857;SDS011;9558;50.178;8.370;2024-01-11T02:17:26;9.07;;;4.65;;
18857;SDS011;9558;50.178;8.370;2024-01-11T02:20:13;4.20;;;3.08;;
18857;SDS011;9558;50.178;8.370;2024-01-11T02:23:01;7.57;;;3.53;;
18857;SDS011;9558;50.178;8.370;2024-01-11T02:25:52;5.20;;;3.13;;
18857;SDS011;9558;50.178;8.370;2024-01-11T02:28:42;9.48;;;4.80;;
18857;SDS011;9558;50.178;8.370;2024-01-11T02:31:30;7.78;;;4.13;;
18857;SDS011;9558;50.178;8.370;2024-01-11T02:34:17;9.25;;;4.07;;
18857;SDS011;9558;50.178;8.370;2024-01-11T02:39:51;6.40;;;4.28;;
18857;SDS011;9558;50.178;8.370;2024-01-11T02:42:40;6.63;;;2.90;;
18857;SDS011;9558;50.178;8.370;2024-01-11T02:45:27;6.95;;;4.28;;
18857;SDS011;9558;50.178;8.370;2024-01-11T02:48:14;11.25;;;5.63;;
18857;SDS011;9558;50.178;8.370;2024-01-11T02:51:01;7.00;;;3.47;;
18857;SDS011;9558;50.178;8.370;2024-01-11T02:53:47;9.23;;;3.28;;
18857;SDS011;9558;50.178;8.370;2024-01-11T02:56:34;7.72;;;4.05;;
18857;SDS011;9558;50.178;8.370;2024-01-11T02:59:22;8.38;;;3.88;;
18857;SDS011;9558;50.178;8.370;2024-01-11T03:02:09;10.80;;;4.72;;
18857;SDS011;9558;50.178;8.370;2024-01-11T03:04:56;7.80;;;3.78;;
18857;SDS011;9558;50.178;8.370;2024-01-11T03:07:43;16.88;;;4.95;;
18857;SDS011;9558;50.178;8.370;2024-01-11T03:10:29;9.15;;;4.63;;
18857;SDS011;9558;50.178;8.370;2024-01-11T03:13:16;7.35;;;3.50;;
18857;SDS011;9558;50.178;8.370;2024-01-11T03:16:05;10.57;;;5.22;;
18857;SDS011;9558;50.178;8.370;2024-01-11T03:18:52;9.05;;;4.30;;
18857;SDS011;9558;50.178;8.370;2024-01-11T03:21:40;12.80;;;4.88;;
18857;SDS011;9558;50.178;8.370;2024-01-11T03:24:27;6.75;;;2.70;;
18857;SDS011;9558;50.178;8.370;2024-01-11T03:27:14;7.70;;;4.90;;
18857;SDS011;9558;50.178;8.370;2024-01-11T03:30:01;9.80;;;4.63;;
18857;SDS011;9558;50.178;8.370;2024-01-11T03:32:49;10.25;;;4.13;;
18857;SDS011;9558;50.178;8.370;2024-01-11T03:35:36;18.65;;;5.38;;
18857;SDS011;9558;50.178;8.370;2024-01-11T03:38:24;7.95;;;3.25;;
18857;SDS011;9558;50.178;8.370;2024-01-11T03:41:11;6.68;;;3.45;;
18857;SDS011;9558;50.178;8.370;2024-01-11T03:43:57;7.97;;;3.63;;
18857;SDS011;9558;50.178;8.370;2024-01-11T03:46:44;3.67;;;3.03;;
18857;SDS011;9558;50.178;8.370;2024-01-11T03:49:33;10.43;;;4.20;;
18857;SDS011;9558;50.178;8.370;2024-01-11T03:52:20;15.55;;;4.18;;
18857;SDS011;9558;50.178;8.370;2024-01-11T03:55:07;5.07;;;2.15;;
18857;SDS011;9558;50.178;8.370;2024-01-11T03:57:53;12.50;;;4.47;;
18857;SDS011;9558;50.178;8.370;2024-01-11T04:00:40;9.30;;;3.78;;
18857;SDS011;9558;50.178;8.370;2024-01-11T04:03:27;10.23;;;4.32;;
18857;SDS011;9558;50.178;8.370;2024-01-11T04:06:19;11.20;;;4.25;;
18857;SDS011;9558;50.178;8.370;2024-01-11T04:09:07;14.00;;;3.55;;
18857;SDS011;9558;50.178;8.370;2024-01-11T04:11:54;9.65;;;4.50;;
18857;SDS011;9558;50.178;8.370;2024-01-11T04:14:41;3.28;;;2.70;;
18857;SDS011;9558;50.178;8.370;2024-01-11T04:17:28;9.60;;;5.53;;
18857;SDS011;9558;50.178;8.370;2024-01-11T04:20:15;6.68;;;3.97;;
18857;SDS011;9558;50.178;8.370;2024-01-11T04:23:03;9.15;;;4.10;;
18857;SDS011;9558;50.178;8.370;2024-01-11T04:25:50;4.63;;;2.97;;
18857;SDS011;9558;50.178;8.370;2024-01-11T04:28:37;16.25;;;7.15;;
18857;SDS011;9558;50.178;8.370;2024-01-11T04:31:24;11.52;;;4.07;;
18857;SDS011;9558;50.178;8.370;2024-01-11T04:34:11;11.68;;;4.53;;
18857;SDS011;9558;50.178;8.370;2024-01-11T04:36:57;6.40;;;3.55;;
18857;SDS011;9558;50.178;8.370;2024-01-11T04:39:46;16.33;;;4.05;;
18857;SDS011;9558;50.178;8.370;2024-01-11T04:42:33;3.05;;;2.75;;
18857;SDS011;9558;50.178;8.370;2024-01-11T04:45:19;9.95;;;3.75;;
18857;SDS011;9558;50.178;8.370;2024-01-11T04:48:07;9.70;;;3.67;;
18857;SDS011;9558;50.178;8.370;2024-01-11T04:50:53;5.22;;;4.35;;
18857;SDS011;9558;50.178;8.370;2024-01-11T04:53:40;5.05;;;3.60;;
18857;SDS011;9558;50.178;8.370;2024-01-11T04:56:29;6.97;;;3.85;;
18857;SDS011;9558;50.178;8.370;2024-01-11T04:59:16;7.75;;;3.55;;
18857;SDS011;9558;50.178;8.370;2024-01-11T05:02:03;8.48;;;3.55;;
18857;SDS011;9558;50.178;8.370;2024-01-11T05:04:50;7.43;;;4.32;;
18857;SDS011;9558;50.178;8.370;2024-01-11T05:07:37;6.40;;;2.95;;
18857;SDS011;9558;50.178;8.370;2024-01-11T05:10:23;7.75;;;4.70;;
18857;SDS011;9558;50.178;8.370;2024-01-11T05:13:13;6.20;;;2.72;;
18857;SDS011;9558;50.178;8.370;2024-01-11T05:16:00;4.32;;;3.92;;
18857;SDS011;9558;50.178;8.370;2024-01-11T05:18:47;16.08;;;5.70;;
18857;SDS011;9558;50.178;8.370;2024-01-11T05:21:33;6.18;;;3.35;;
18857;SDS011;9558;50.178;8.370;2024-01-11T05:24:21;6.80;;;3.97;;
18857;SDS011;9558;50.178;8.370;2024-01-11T05:27:07;5.70;;;3.97;;
18857;SDS011;9558;50.178;8.370;2024-01-11T05:29:56;12.23;;;4.45;;
18857;SDS011;9558;50.178;8.370;2024-01-11T05:32:42;5.60;;;4.28;;
18857;SDS011;9558;50.178;8.370;2024-01-11T05:35:29;3.35;;;2.35;;
18857;SDS011;9558;50.178;8.370;2024-01-11T05:38:16;7.03;;;3.10;;
18857;SDS011;9558;50.178;8.370;2024-01-11T05:41:03;11.93;;;5.00;;
18857;SDS011;9558;50.178;8.370;2024-01-11T05:43:49;6.57;;;3.80;;
18857;SDS011;9558;50.178;8.370;2024-01-11T05:46:38;11.48;;;3.85;;
18857;SDS011;9558;50.178;8.370;2024-01-11T05:49:24;14.02;;;5.25;;
18857;SDS011;9558;50.178;8.370;2024-01-11T05:52:11;10.45;;;4.43;;
18857;SDS011;9558;50.178;8.370;2024-01-11T05:54:58;3.30;;;1.77;;
18857;SDS011;9558;50.178;8.370;2024-01-11T05:57:45;10.95;;;4.10;;
18857;SDS011;9558;50.178;8.370;2024-01-11T06:00:31;10.85;;;6.15;;
18857;SDS011;9558;50.178;8.370;2024-01-11T06:03:20;6.18;;;4.00;;
18857;SDS011;9558;50.178;8.370;2024-01-11T06:06:06;13.70;;;5.28;;
18857;SDS011;9558;50.178;8.370;2024-01-11T06:08:53;7.68;;;4.22;;
18857;SDS011;9558;50.178;8.370;2024-01-11T06:11:40;20.45;;;5.75;;
18857;SDS011;9558;50.178;8.370;2024-01-11T06:14:27;15.00;;;5.50;;
18857;SDS011;9558;50.178;8.370;2024-01-11T06:17:14;7.57;;;4.78;;
18857;SDS011;9558;50.178;8.370;2024-01-11T06:20:02;8.25;;;4.30;;
18857;SDS011;9558;50.178;8.370;2024-01-11T06:22:50;8.23;;;3.58;;
18857;SDS011;9558;50.178;8.370;2024-01-11T06:25:37;6.00;;;4.82;;
18857;SDS011;9558;50.178;8.370;2024-01-11T06:28:24;4.65;;;3.80;;
18857;SDS011;9558;50.178;8.370;2024-01-11T06:31:10;10.88;;;2.63;;
18857;SDS011;9558;50.178;8.370;2024-01-11T06:33:57;10.02;;;4.45;;
18857;SDS011;9558;50.178;8.370;2024-01-11T06:36:46;10.43;;;4.70;;
18857;SDS011;9558;50.178;8.370;2024-01-11T06:39:32;8.38;;;4.28;;
18857;SDS011;9558;50.178;8.370;2024-01-11T06:42:19;9.63;;;5.25;;
18857;SDS011;9558;50.178;8.370;2024-01-11T06:45:06;13.43;;;3.97;;
18857;SDS011;9558;50.178;8.370;2024-01-11T06:47:54;11.95;;;4.30;;
18857;SDS011;9558;50.178;8.370;2024-01-11T06:50:42;8.30;;;3.78;;
18857;SDS011;9558;50.178;8.370;2024-01-11T06:53:30;12.18;;;3.28;;
18857;SDS011;9558;50.178;8.370;2024-01-11T06:56:18;13.05;;;5.03;;
18857;SDS011;9558;50.178;8.370;2024-01-11T06:59:06;14.93;;;7.85;;
18857;SDS011;9558;50.178;8.370;2024-01-11T07:01:53;12.70;;;5.55;;
18857;SDS011;9558;50.178;8.370;2024-01-11T07:04:43;6.13;;;3.90;;
18857;SDS011;9558;50.178;8.370;2024-01-11T07:07:30;18.08;;;7.78;;
18857;SDS011;9558;50.178;8.370;2024-01-11T07:10:19;8.02;;;5.53;;
18857;SDS011;9558;50.178;8.370;2024-01-11T07:13:06;9.75;;;4.65;;
18857;SDS011;9558;50.178;8.370;2024-01-11T07:15:55;8.98;;;5.10;;
18857;SDS011;9558;50.178;8.370;2024-01-11T07:18:43;9.07;;;4.60;;
18857;SDS011;9558;50.178;8.370;2024-01-11T07:21:30;12.43;;;5.22;;
18857;SDS011;9558;50.178;8.370;2024-01-11T07:24:17;12.90;;;6.38;;
18857;SDS011;9558;50.178;8.370;2024-01-11T07:27:06;6.75;;;4.50;;
18857;SDS011;9558;50.178;8.370;2024-01-11T07:29:53;10.70;;;4.28;;
18857;SDS011;9558;50.178;8.370;2024-01-11T07:32:40;8.55;;;5.10;;
18857;SDS011;9558;50.178;8.370;2024-01-11T07:35:26;9.45;;;4.43;;
18857;SDS011;9558;50.178;8.370;2024-01-11T07:38:13;10.20;;;5.15;;
18857;SDS011;9558;50.178;8.370;2024-01-11T07:41:00;10.35;;;4.32;;
18857;SDS011;9558;50.178;8.370;2024-01-11T07:43:48;9.73;;;4.68;;
18857;SDS011;9558;50.178;8.370;2024-01-11T07:46:35;9.00;;;3.75;;
18857;SDS011;9558;50.178;8.370;2024-01-11T07:49:22;11.80;;;5.57;;
18857;SDS011;9558;50.178;8.370;2024-01-11T07:52:09;14.77;;;5.68;;
18857;SDS011;9558;50.178;8.370;2024-01-11T07:54:56;11.10;;;4.88;;
18857;SDS011;9558;50.178;8.370;2024-01-11T07:57:45;9.80;;;4.78;;
18857;SDS011;9558;50.178;8.370;2024-01-11T08:00:33;9.55;;;4.90;;
18857;SDS011;9558;50.178;8.370;2024-01-11T08:03:20;8.77;;;4.07;;
18857;SDS011;9558;50.178;8.370;2024-01-11T08:06:07;4.32;;;3.75;;
18857;SDS011;9558;50.178;8.370;2024-01-11T08:08:54;11.35;;;5.43;;
18857;SDS011;9558;50.178;8.370;2024-01-11T08:11:41;7.32;;;4.50;;
18857;SDS011;9558;50.178;8.370;2024-01-11T08:14:28;10.93;;;5.88;;
18857;SDS011;9558;50.178;8.370;2024-01-11T08:17:16;11.27;;;5.20;;
18857;SDS011;9558;50.178;8.370;2024-01-11T08:20:03;7.82;;;4.68;;
18857;SDS011;9558;50.178;8.370;2024-01-11T08:22:53;5.72;;;4.85;;
18857;SDS011;9558;50.178;8.370;2024-01-11T08:25:40;12.32;;;5.35;;
18857;SDS011;9558;50.178;8.370;2024-01-11T08:28:27;5.18;;;3.65;;
18857;SDS011;9558;50.178;8.370;2024-01-11T08:31:14;5.25;;;4.25;;
18857;SDS011;9558;50.178;8.370;2024-01-11T08:34:02;6.90;;;3.38;;
18857;SDS011;9558;50.178;8.370;2024-01-11T08:36:50;6.88;;;2.92;;
18857;SDS011;9558;50.178;8.370;2024-01-11T08:39:37;16.73;;;6.38;;
18857;SDS011;9558;50.178;8.370;2024-01-11T08:42:24;10.98;;;5.13;;
18857;SDS011;9558;50.178;8.370;2024-01-11T08:45:10;14.63;;;7.43;;
18857;SDS011;9558;50.178;8.370;2024-01-11T08:48:03;9.13;;;5.00;;
18857;SDS011;9558;50.178;8.370;2024-01-11T08:50:52;11.75;;;6.22;;
18857;SDS011;9558;50.178;8.370;2024-01-11T08:53:38;4.70;;;3.53;;
18857;SDS011;9558;50.178;8.370;2024-01-11T08:56:25;20.23;;;6.55;;
18857;SDS011;9558;50.178;8.370;2024-01-11T08:59:13;12.57;;;6.25;;
18857;SDS011;9558;50.178;8.370;2024-01-11T09:02:00;13.80;;;7.68;;
18857;SDS011;9558;50.178;8.370;2024-01-11T09:04:46;12.60;;;6.43;;
18857;SDS011;9558;50.178;8.370;2024-01-11T09:07:35;10.05;;;5.57;;
18857;SDS011;9558;50.178;8.370;2024-01-11T09:10:23;7.60;;;3.75;;
18857;SDS011;9558;50.178;8.370;2024-01-11T09:13:11;14.07;;;6.80;;
18857;SDS011;9558;50.178;8.370;2024-01-11T09:15:58;12.98;;;5.22;;
18857;SDS011;9558;50.178;8.370;2024-01-11T09:18:44;15.52;;;6.60;;
18857;SDS011;9558;50.178;8.370;2024-01-11T09:21:31;15.32;;;5.70;;
18857;SDS011;9558;50.178;8.370;2024-01-11T09:24:19;9.00;;;5.13;;
18857;SDS011;9558;50.178;8.370;2024-01-11T09:27:06;25.98;;;5.88;;
18857;SDS011;9558;50.178;8.370;2024-01-11T09:29:53;9.88;;;5.82;;
18857;SDS011;9558;50.178;8.370;2024-01-11T09:32:40;18.80;;;6.85;;
18857;SDS011;9558;50.178;8.370;2024-01-11T09:35:26;11.80;;;6.50;;
18857;SDS011;9558;50.178;8.370;2024-01-11T09:38:13;11.38;;;6.40;;
18857;SDS011;9558;50.178;8.370;2024-01-11T09:41:05;13.38;;;6.20;;
18857;SDS011;9558;50.178;8.370;2024-01-11T09:43:54;12.30;;;5.80;;
18857;SDS011;9558;50.178;8.370;2024-01-11T09:46:42;13.43;;;7.10;;
18857;SDS011;9558;50.178;8.370;2024-01-11T09:49:29;17.23;;;7.30;;
18857;SDS011;9558;50.178;8.370;2024-01-11T09:52:19;12.55;;;6.15;;
18857;SDS011;9558;50.178;8.370;2024-01-11T09:55:08;18.02;;;7.90;;
18857;SDS011;9558;50.178;8.370;2024-01-11T09:57:56;12.65;;;5.63;;
18857;SDS011;9558;50.178;8.370;2024-01-11T10:00:46;12.98;;;7.10;;
18857;SDS011;9558;50.178;8.370;2024-01-11T10:03:38;21.13;;;9.40;;
18857;SDS011;9558;50.178;8.370;2024-01-11T10:06:26;20.35;;;7.30;;
18857;SDS011;9558;50.178;8.370;2024-01-11T10:09:13;21.50;;;9.15;;
18857;SDS011;9558;50.178;8.370;2024-01-11T10:12:01;17.55;;;6.57;;
18857;SDS011;9558;50.178;8.370;2024-01-11T10:14:50;14.60;;;6.97;;
18857;SDS011;9558;50.178;8.370;2024-01-11T10:17:38;14.35;;;6.22;;
18857;SDS011;9558;50.178;8.370;2024-01-11T10:20:27;21.55;;;8.73;;
18857;SDS011;9558;50.178;8.370;2024-01-11T10:23:15;18.30;;;8.57;;
18857;SDS011;9558;50.178;8.370;2024-01-11T10:26:03;20.77;;;6.72;;
18857;SDS011;9558;50.178;8.370;2024-01-11T10:28:50;14.50;;;7.78;;
18857;SDS011;9558;50.178;8.370;2024-01-11T10:31:38;12.55;;;5.82;;
18857;SDS011;9558;50.178;8.370;2024-01-11T10:34:25;17.05;;;5.75;;
18857;SDS011;9558;50.178;8.370;2024-01-11T10:37:12;12.43;;;6.75;;
18857;SDS011;9558;50.178;8.370;2024-01-11T10:40:02;18.00;;;7.30;;
18857;SDS011;9558;50.178;8.370;2024-01-11T10:42:56;10.95;;;5.95;;
18857;SDS011;9558;50.178;8.370;2024-01-11T10:45:47;16.80;;;7.60;;
18857;SDS011;9558;50.178;8.370;2024-01-11T10:48:40;16.85;;;8.02;;
18857;SDS011;9558;50.178;8.370;2024-01-11T10:51:30;22.95;;;8.05;;
18857;SDS011;9558;50.178;8.370;2024-01-11T10:54:19;10.57;;;5.07;;
18857;SDS011;9558;50.178;8.370;2024-01-11T10:57:08;17.10;;;7.70;;
18857;SDS011;9558;50.178;8.370;2024-01-11T10:59:56;27.27;;;8.13;;
18857;SDS011;9558;50.178;8.370;2024-01-11T11:02:48;15.02;;;7.40;;
18857;SDS011;9558;50.178;8.370;2024-01-11T11:05:38;24.42;;;9.57;;
18857;SDS011;9558;50.178;8.370;2024-01-11T11:08:26;13.15;;;6.05;;
18857;SDS011;9558;50.178;8.370;2024-01-11T11:14:00;24.85;;;6.55;;
18857;SDS011;9558;50.178;8.370;2024-01-11T11:16:49;17.88;;;8.18;;
18857;SDS011;9558;50.178;8.370;2024-01-11T11:19:38;17.17;;;6.65;;
18857;SDS011;9558;50.178;8.370;2024-01-11T11:22:27;19.00;;;8.07;;
18857;SDS011;9558;50.178;8.370;2024-01-11T11:25:23;19.15;;;6.13;;
18857;SDS011;9558;50.178;8.370;2024-01-11T11:28:11;18.50;;;8.23;;
18857;SDS011;9558;50.178;8.370;2024-01-11T11:30:58;14.20;;;7.43;;
18857;SDS011;9558;50.178;8.370;2024-01-11T11:33:50;18.63;;;7.95;;
18857;SDS011;9558;50.178;8.370;2024-01-11T11:36:39;15.50;;;6.88;;
18857;SDS011;9558;50.178;8.370;2024-01-11T11:39:28;12.95;;;6.97;;
18857;SDS011;9558;50.178;8.370;2024-01-11T11:42:15;13.50;;;7.65;;
18857;SDS011;9558;50.178;8.370;2024-01-11T11:45:02;21.83;;;7.70;;
18857;SDS011;9558;50.178;8.370;2024-01-11T11:47:49;16.65;;;7.60;;
18857;SDS011;9558;50.178;8.370;2024-01-11T11:50:36;18.42;;;8.52;;
18857;SDS011;9558;50.178;8.370;2024-01-11T11:53:23;20.17;;;8.23;;
18857;SDS011;9558;50.178;8.370;2024-01-11T11:56:11;16.13;;;6.30;;
18857;SDS011;9558;50.178;8.370;2024-01-11T11:59:00;19.45;;;8.30;;
18857;SDS011;9558;50.178;8.370;2024-01-11T12:01:49;23.83;;;8.52;;
18857;SDS011;9558;50.178;8.370;2024-01-11T12:04:38;19.83;;;8.52;;
18857;SDS011;9558;50.178;8.370;2024-01-11T12:07:25;16.77;;;6.97;;
18857;SDS011;9558;50.178;8.370;2024-01-11T12:10:12;17.48;;;8.80;;
18857;SDS011;9558;50.178;8.370;2024-01-11T12:13:02;17.88;;;8.38;;
18857;SDS011;9558;50.178;8.370;2024-01-11T12:15:49;21.35;;;7.60;;
18857;SDS011;9558;50.178;8.370;2024-01-11T12:21:23;11.55;;;6.10;;
18857;SDS011;9558;50.178;8.370;2024-01-11T12:24:11;15.32;;;7.05;;
18857;SDS011;9558;50.178;8.370;2024-01-11T12:26:58;15.27;;;7.00;;
18857;SDS011;9558;50.178;8.370;2024-01-11T12:29:47;17.60;;;8.20;;
18857;SDS011;9558;50.178;8.370;2024-01-11T12:32:34;16.42;;;7.57;;
18857;SDS011;9558;50.178;8.370;2024-01-11T12:35:21;13.30;;;6.65;;
18857;SDS011;9558;50.178;8.370;2024-01-11T12:38:08;20.65;;;8.60;;
18857;SDS011;9558;50.178;8.370;2024-01-11T12:43:42;15.02;;;6.30;;
18857;SDS011;9558;50.178;8.370;2024-01-11T12:49:17;17.60;;;7.28;;
18857;SDS011;9558;50.178;8.370;2024-01-11T12:52:04;23.77;;;7.72;;
18857;SDS011;9558;50.178;8.370;2024-01-11T12:54:51;13.50;;;6.72;;
18857;SDS011;9558;50.178;8.370;2024-01-11T12:57:39;19.67;;;6.97;;
18857;SDS011;9558;50.178;8.370;2024-01-11T13:00:25;24.77;;;8.95;;
18857;SDS011;9558;50.178;8.370;2024-01-11T13:03:14;16.52;;;7.90;;
18857;SDS011;9558;50.178;8.370;2024-01-11T13:06:01;14.80;;;6.57;;
18857;SDS011;9558;50.178;8.370;2024-01-11T13:08:50;16.75;;;6.10;;
18857;SDS011;9558;50.178;8.370;2024-01-11T13:11:38;17.35;;;6.50;;
18857;SDS011;9558;50.178;8.370;2024-01-11T13:14:25;16.88;;;6.90;;
18857;SDS011;9558;50.178;8.370;2024-01-11T13:17:14;17.10;;;6.60;;
18857;SDS011;9558;50.178;8.370;2024-01-11T13:20:02;26.10;;;7.70;;
18857;SDS011;9558;50.178;8.370;2024-01-11T13:22:49;16.90;;;6.95;;
18857;SDS011;9558;50.178;8.370;2024-01-11T13:25:39;16.63;;;6.85;;
18857;SDS011;9558;50.178;8.370;2024-01-11T13:28:27;13.13;;;5.82;;
18857;SDS011;9558;50.178;8.370;2024-01-11T13:31:14;17.05;;;6.30;;
18857;SDS011;9558;50.178;8.370;2024-01-11T13:34:00;16.65;;;6.65;;
18857;SDS011;9558;50.178;8.370;2024-01-11T13:36:50;13.90;;;6.03;;
18857;SDS011;9558;50.178;8.370;2024-01-11T13:39:37;10.52;;;5.03;;
18857;SDS011;9558;50.178;8.370;2024-01-11T13:42:23;14.45;;;6.13;;
18857;SDS011;9558;50.178;8.370;2024-01-11T13:45:10;16.85;;;6.78;;
18857;SDS011;9558;50.178;8.370;2024-01-11T13:47:58;18.10;;;7.80;;
18857;SDS011;9558;50.178;8.370;2024-01-11T13:50:45;20.50;;;7.30;;
18857;SDS011;9558;50.178;8.370;2024-01-11T13:53:33;17.73;;;6.75;;
18857;SDS011;9558;50.178;8.370;2024-01-11T13:56:20;20.13;;;7.68;;
18857;SDS011;9558;50.178;8.370;2024-01-11T13:59:07;17.02;;;6.78;;
18857;SDS011;9558;50.178;8.370;2024-01-11T14:01:54;19.80;;;9.32;;
18857;SDS011;9558;50.178;8.370;2024-01-11T14:04:41;17.48;;;7.65;;
18857;SDS011;9558;50.178;8.370;2024-01-11T14:07:28;16.48;;;6.68;;
18857;SDS011;9558;50.178;8.370;2024-01-11T14:10:19;10.75;;;5.40;;
18857;SDS011;9558;50.178;8.370;2024-01-11T14:13:06;13.32;;;6.40;;
18857;SDS011;9558;50.178;8.370;2024-01-11T14:15:53;14.00;;;7.10;;
18857;SDS011;9558;50.178;8.370;2024-01-11T14:18:40;12.95;;;6.78;;
18857;SDS011;9558;50.178;8.370;2024-01-11T14:21:27;16.90;;;6.40;;
18857;SDS011;9558;50.178;8.370;2024-01-11T14:24:14;13.07;;;5.82;;
18857;SDS011;9558;50.178;8.370;2024-01-11T14:27:02;16.38;;;8.15;;
18857;SDS011;9558;50.178;8.370;2024-01-11T14:29:50;16.70;;;7.47;;
18857;SDS011;9558;50.178;8.370;2024-01-11T14:32:37;14.35;;;5.88;;
18857;SDS011;9558;50.178;8.370;2024-01-11T14:35:24;15.95;;;7.00;;
18857;SDS011;9558;50.178;8.370;2024-01-11T14:38:11;18.27;;;7.75;;
18857;SDS011;9558;50.178;8.370;2024-01-11T14:40:58;26.00;;;7.80;;
18857;SDS011;9558;50.178;8.370;2024-01-11T14:43:46;20.85;;;7.90;;
18857;SDS011;9558;50.178;8.370;2024-01-11T14:46:33;16.48;;;6.72;;
18857;SDS011;9558;50.178;8.370;2024-01-11T14:49:20;21.48;;;7.93;;
18857;SDS011;9558;50.178;8.370;2024-01-11T14:52:07;22.00;;;7.63;;
18857;SDS011;9558;50.178;8.370;2024-01-11T14:54:54;21.05;;;8.20;;
18857;SDS011;9558;50.178;8.370;2024-01-11T14:57:41;20.70;;;7.82;;
18857;SDS011;9558;50.178;8.370;2024-01-11T15:00:29;20.70;;;6.80;;
18857;SDS011;9558;50.178;8.370;2024-01-11T15:03:16;17.95;;;7.85;;
18857;SDS011;9558;50.178;8.370;2024-01-11T15:06:04;14.48;;;7.38;;
18857;SDS011;9558;50.178;8.370;2024-01-11T15:08:51;26.85;;;7.95;;
18857;SDS011;9558;50.178;8.370;2024-01-11T15:11:38;18.83;;;7.85;;
18857;SDS011;9558;50.178;8.370;2024-01-11T15:14:25;20.58;;;7.82;;
18857;SDS011;9558;50.178;8.370;2024-01-11T15:17:13;21.55;;;8.18;;
18857;SDS011;9558;50.178;8.370;2024-01-11T15:20:01;21.92;;;10.32;;
18857;SDS011;9558;50.178;8.370;2024-01-11T15:22:49;19.40;;;9.52;;
18857;SDS011;9558;50.178;8.370;2024-01-11T15:25:36;26.92;;;13.18;;
18857;SDS011;9558;50.178;8.370;2024-01-11T15:28:23;27.63;;;14.27;;
18857;SDS011;9558;50.178;8.370;2024-01-11T15:31:10;23.23;;;10.07;;
18857;SDS011;9558;50.178;8.370;2024-01-11T15:33:58;19.58;;;10.73;;
18857;SDS011;9558;50.178;8.370;2024-01-11T15:36:45;25.73;;;10.52;;
18857;SDS011;9558;50.178;8.370;2024-01-11T15:39:32;23.30;;;8.80;;
18857;SDS011;9558;50.178;8.370;2024-01-11T15:45:06;13.80;;;7.88;;
18857;SDS011;9558;50.178;8.370;2024-01-11T15:50:41;18.45;;;7.00;;
18857;SDS011;9558;50.178;8.370;2024-01-11T15:53:28;14.23;;;6.85;;
18857;SDS011;9558;50.178;8.370;2024-01-11T15:59:02;16.08;;;6.40;;
18857;SDS011;9558;50.178;8.370;2024-01-11T16:01:55;21.80;;;7.60;;
18857;SDS011;9558;50.178;8.370;2024-01-11T16:04:42;10.95;;;5.90;;
18857;SDS011;9558;50.178;8.370;2024-01-11T16:07:31;21.77;;;6.90;;
18857;SDS011;9558;50.178;8.370;2024-01-11T16:10:19;13.00;;;7.00;;
18857;SDS011;9558;50.178;8.370;2024-01-11T16:13:06;14.50;;;6.78;;
18857;SDS011;9558;50.178;8.370;2024-01-11T16:15:52;16.00;;;8.18;;
18857;SDS011;9558;50.178;8.370;2024-01-11T16:18:41;17.85;;;8.73;;
18857;SDS011;9558;50.178;8.370;2024-01-11T16:21:29;16.23;;;8.25;;
18857;SDS011;9558;50.178;8.370;2024-01-11T16:24:17;13.85;;;6.13;;
18857;SDS011;9558;50.178;8.370;2024-01-11T16:27:04;12.70;;;6.50;;
18857;SDS011;9558;50.178;8.370;2024-01-11T16:29:52;17.85;;;6.28;;
18857;SDS011;9558;50.178;8.370;2024-01-11T16:32:39;19.73;;;8.00;;
18857;SDS011;9558;50.178;8.370;2024-01-11T16:38:13;13.63;;;6.05;;
18857;SDS011;9558;50.178;8.370;2024-01-11T16:41:01;11.57;;;5.05;;
18857;SDS011;9558;50.178;8.370;2024-01-11T16:43:48;11.90;;;5.72;;
18857;SDS011;9558;50.178;8.370;2024-01-11T16:46:37;17.83;;;6.32;;
18857;SDS011;9558;50.178;8.370;2024-01-11T16:49:27;15.23;;;5.95;;
18857;SDS011;9558;50.178;8.370;2024-01-11T16:52:14;12.82;;;5.25;;
18857;SDS011;9558;50.178;8.370;2024-01-11T16:55:00;17.35;;;5.05;;
18857;SDS011;9558;50.178;8.370;2024-01-11T17:00:36;13.18;;;5.40;;
18857;SDS011;9558;50.178;8.370;2024-01-11T17:03:22;9.57;;;4.90;;
18857;SDS011;9558;50.178;8.370;2024-01-11T17:06:09;16.40;;;5.25;;
18857;SDS011;9558;50.178;8.370;2024-01-11T17:08:56;11.00;;;5.85;;
18857;SDS011;9558;50.178;8.370;2024-01-11T17:11:43;18.90;;;6.82;;
18857;SDS011;9558;50.178;8.370;2024-01-11T17:14:31;18.50;;;6.00;;
18857;SDS011;9558;50.178;8.370;2024-01-11T17:17:18;13.07;;;5.72;;
18857;SDS011;9558;50.178;8.370;2024-01-11T17:20:05;19.23;;;7.47;;
18857;SDS011;9558;50.178;8.370;2024-01-11T17:22:53;14.63;;;5.93;;
18857;SDS011;9558;50.178;8.370;2024-01-11T17:25:40;14.85;;;5.68;;